sensor_id;sensor_type;location;lat;lon;timestamp;P1;durP1;ratioP1;P2;durP2;ratioP2
2362;SDS011;64265;51.664;7.626;2023-07-31T00:01:33;2.40;;;1.30;;
2362;SDS011;64265;51.664;7.626;2023-07-31T00:04:00;1.83;;;1.40;;
2362;SDS011;64265;51.664;7.626;2023-07-31T00:06:27;4.07;;;1.20;;
2362;SDS011;64265;51.664;7.626;2023-07-31T00:08:55;2.17;;;1.40;;
2362;SDS011;64265;51.664;7.626;2023-07-31T00:11:21;2.80;;;1.50;;
2362;SDS011;64265;51.664;7.626;2023-07-31T00:13:48;3.63;;;2.17;;
2362;SDS011;64265;51.664;7.626;2023-07-31T00:16:15;4.03;;;1.27;;
2362;SDS011;64265;51.664;7.626;2023-07-31T00:18:42;1.40;;;1.30;;
2362;SDS011;64265;51.664;7.626;2023-07-31T00:21:08;1.73;;;1.30;;
2362;SDS011;64265;51.664;7.626;2023-07-31T00:23:35;4.80;;;1.63;;
2362;SDS011;64265;51.664;7.626;2023-07-31T00:26:03;2.43;;;1.70;;
2362;SDS011;64265;51.664;7.626;2023-07-31T00:28:30;1.57;;;1.47;;
2362;SDS011;64265;51.664;7.626;2023-07-31T00:30:56;4.73;;;1.70;;
2362;SDS011;64265;51.664;7.626;2023-07-31T00:33:23;2.37;;;1.83;;
2362;SDS011;64265;51.664;7.626;2023-07-31T00:35:50;5.00;;;1.67;;
2362;SDS011;64265;51.664;7.626;2023-07-31T00:38:17;2.50;;;1.77;;
2362;SDS011;64265;51.664;7.626;2023-07-31T00:40:43;1.93;;;1.40;;
2362;SDS011;64265;51.664;7.626;2023-07-31T00:43:11;3.23;;;1.43;;
2362;SDS011;64265;51.664;7.626;2023-07-31T00:45:38;1.80;;;1.40;;
2362;SDS011;64265;51.664;7.626;2023-07-31T00:48:05;1.60;;;1.27;;
2362;SDS011;64265;51.664;7.626;2023-07-31T00:50:32;2.40;;;1.50;;
2362;SDS011;64265;51.664;7.626;2023-07-31T00:53:00;1.93;;;1.73;;
2362;SDS011;64265;51.664;7.626;2023-07-31T00:55:27;1.40;;;1.23;;
2362;SDS011;64265;51.664;7.626;2023-07-31T00:57:54;3.03;;;1.93;;
2362;SDS011;64265;51.664;7.626;2023-07-31T01:00:23;2.13;;;1.50;;
2362;SDS011;64265;51.664;7.626;2023-07-31T01:02:50;1.70;;;1.60;;
2362;SDS011;64265;51.664;7.626;2023-07-31T01:05:17;2.13;;;1.60;;
2362;SDS011;64265;51.664;7.626;2023-07-31T01:07:52;1.70;;;1.53;;
2362;SDS011;64265;51.664;7.626;2023-07-31T01:10:26;2.00;;;1.63;;
2362;SDS011;64265;51.664;7.626;2023-07-31T01:12:56;2.23;;;1.47;;
2362;SDS011;64265;51.664;7.626;2023-07-31T01:15:25;2.33;;;1.40;;
2362;SDS011;64265;51.664;7.626;2023-07-31T01:17:52;1.87;;;1.30;;
2362;SDS011;64265;51.664;7.626;2023-07-31T01:20:24;2.13;;;1.93;;
2362;SDS011;64265;51.664;7.626;2023-07-31T01:25:59;3.07;;;1.43;;
2362;SDS011;64265;51.664;7.626;2023-07-31T01:28:32;1.77;;;1.40;;
2362;SDS011;64265;51.664;7.626;2023-07-31T01:31:06;1.70;;;1.10;;
2362;SDS011;64265;51.664;7.626;2023-07-31T01:33:35;3.20;;;1.63;;
2362;SDS011;64265;51.664;7.626;2023-07-31T01:36:03;4.60;;;1.63;;
2362;SDS011;64265;51.664;7.626;2023-07-31T01:38:30;1.53;;;1.43;;
2362;SDS011;64265;51.664;7.626;2023-07-31T01:40:58;1.90;;;1.60;;
2362;SDS011;64265;51.664;7.626;2023-07-31T01:43:25;1.57;;;1.30;;
2362;SDS011;64265;51.664;7.626;2023-07-31T01:45:52;1.60;;;1.23;;
2362;SDS011;64265;51.664;7.626;2023-07-31T01:48:19;2.43;;;1.70;;
2362;SDS011;64265;51.664;7.626;2023-07-31T01:50:45;1.63;;;1.53;;
2362;SDS011;64265;51.664;7.626;2023-07-31T01:53:12;1.17;;;1.07;;
2362;SDS011;64265;51.664;7.626;2023-07-31T01:55:39;2.53;;;1.30;;
2362;SDS011;64265;51.664;7.626;2023-07-31T01:58:07;1.83;;;1.60;;
2362;SDS011;64265;51.664;7.626;2023-07-31T02:00:34;2.63;;;1.57;;
2362;SDS011;64265;51.664;7.626;2023-07-31T02:03:01;2.60;;;1.50;;
2362;SDS011;64265;51.664;7.626;2023-07-31T02:05:27;2.60;;;1.57;;
2362;SDS011;64265;51.664;7.626;2023-07-31T02:07:54;2.40;;;1.80;;
2362;SDS011;64265;51.664;7.626;2023-07-31T02:10:21;1.50;;;1.40;;
2362;SDS011;64265;51.664;7.626;2023-07-31T02:12:47;1.53;;;1.43;;
2362;SDS011;64265;51.664;7.626;2023-07-31T02:15:15;1.63;;;1.20;;
2362;SDS011;64265;51.664;7.626;2023-07-31T02:17:43;2.17;;;1.57;;
2362;SDS011;64265;51.664;7.626;2023-07-31T02:20:10;2.60;;;1.20;;
2362;SDS011;64265;51.664;7.626;2023-07-31T02:22:37;4.40;;;1.40;;
2362;SDS011;64265;51.664;7.626;2023-07-31T02:25:04;1.40;;;1.17;;
2362;SDS011;64265;51.664;7.626;2023-07-31T02:27:31;1.73;;;1.60;;
2362;SDS011;64265;51.664;7.626;2023-07-31T02:29:58;2.13;;;1.50;;
2362;SDS011;64265;51.664;7.626;2023-07-31T02:32:26;1.73;;;1.50;;
2362;SDS011;64265;51.664;7.626;2023-07-31T02:34:53;1.83;;;1.40;;
2362;SDS011;64265;51.664;7.626;2023-07-31T02:37:20;1.50;;;1.40;;
2362;SDS011;64265;51.664;7.626;2023-07-31T02:39:46;1.70;;;1.60;;
2362;SDS011;64265;51.664;7.626;2023-07-31T02:42:14;1.60;;;1.50;;
2362;SDS011;64265;51.664;7.626;2023-07-31T02:44:40;1.47;;;1.30;;
2362;SDS011;64265;51.664;7.626;2023-07-31T02:47:07;2.10;;;1.43;;
2362;SDS011;64265;51.664;7.626;2023-07-31T02:49:35;1.50;;;1.30;;
2362;SDS011;64265;51.664;7.626;2023-07-31T02:52:02;1.30;;;1.13;;
2362;SDS011;64265;51.664;7.626;2023-07-31T02:54:29;2.40;;;1.40;;
2362;SDS011;64265;51.664;7.626;2023-07-31T02:56:56;2.53;;;1.33;;
2362;SDS011;64265;51.664;7.626;2023-07-31T02:59:23;2.43;;;1.30;;
2362;SDS011;64265;51.664;7.626;2023-07-31T03:01:50;3.00;;;1.47;;
2362;SDS011;64265;51.664;7.626;2023-07-31T03:04:17;1.33;;;1.20;;
2362;SDS011;64265;51.664;7.626;2023-07-31T03:06:45;1.43;;;1.23;;
2362;SDS011;64265;51.664;7.626;2023-07-31T03:09:11;1.57;;;1.37;;
2362;SDS011;64265;51.664;7.626;2023-07-31T03:11:38;1.60;;;1.10;;
2362;SDS011;64265;51.664;7.626;2023-07-31T03:14:05;1.60;;;1.50;;
2362;SDS011;64265;51.664;7.626;2023-07-31T03:16:31;1.50;;;1.10;;
2362;SDS011;64265;51.664;7.626;2023-07-31T03:18:58;1.50;;;1.33;;
2362;SDS011;64265;51.664;7.626;2023-07-31T03:21:25;1.83;;;1.40;;
2362;SDS011;64265;51.664;7.626;2023-07-31T03:23:53;1.70;;;1.20;;
2362;SDS011;64265;51.664;7.626;2023-07-31T03:26:19;1.90;;;1.43;;
2362;SDS011;64265;51.664;7.626;2023-07-31T03:28:46;1.67;;;1.30;;
2362;SDS011;64265;51.664;7.626;2023-07-31T03:31:14;1.83;;;1.20;;
2362;SDS011;64265;51.664;7.626;2023-07-31T03:33:41;2.63;;;1.43;;
2362;SDS011;64265;51.664;7.626;2023-07-31T03:36:08;1.50;;;1.23;;
2362;SDS011;64265;51.664;7.626;2023-07-31T03:38:34;1.43;;;1.33;;
2362;SDS011;64265;51.664;7.626;2023-07-31T03:41:02;1.50;;;1.23;;
2362;SDS011;64265;51.664;7.626;2023-07-31T03:43:31;1.40;;;1.20;;
2362;SDS011;64265;51.664;7.626;2023-07-31T03:45:58;1.30;;;1.20;;
2362;SDS011;64265;51.664;7.626;2023-07-31T03:48:25;1.50;;;1.33;;
2362;SDS011;64265;51.664;7.626;2023-07-31T03:50:52;1.60;;;1.20;;
2362;SDS011;64265;51.664;7.626;2023-07-31T03:53:19;2.00;;;1.50;;
2362;SDS011;64265;51.664;7.626;2023-07-31T03:55:45;2.80;;;1.50;;
2362;SDS011;64265;51.664;7.626;2023-07-31T03:58:14;3.53;;;1.70;;
2362;SDS011;64265;51.664;7.626;2023-07-31T04:00:40;1.70;;;1.40;;
2362;SDS011;64265;51.664;7.626;2023-07-31T04:03:07;1.50;;;1.03;;
2362;SDS011;64265;51.664;7.626;2023-07-31T04:05:37;1.40;;;1.30;;
2362;SDS011;64265;51.664;7.626;2023-07-31T04:08:05;1.93;;;1.50;;
2362;SDS011;64265;51.664;7.626;2023-07-31T04:10:32;1.47;;;1.20;;
2362;SDS011;64265;51.664;7.626;2023-07-31T04:12:59;3.20;;;1.77;;
2362;SDS011;64265;51.664;7.626;2023-07-31T04:15:27;1.83;;;1.47;;
2362;SDS011;64265;51.664;7.626;2023-07-31T04:17:54;1.47;;;1.20;;
2362;SDS011;64265;51.664;7.626;2023-07-31T04:20:20;1.67;;;1.57;;
2362;SDS011;64265;51.664;7.626;2023-07-31T04:22:47;1.60;;;1.43;;
2362;SDS011;64265;51.664;7.626;2023-07-31T04:25:14;1.63;;;1.30;;
2362;SDS011;64265;51.664;7.626;2023-07-31T04:27:41;1.93;;;1.10;;
2362;SDS011;64265;51.664;7.626;2023-07-31T04:30:08;1.23;;;1.07;;
2362;SDS011;64265;51.664;7.626;2023-07-31T04:32:36;1.90;;;1.50;;
2362;SDS011;64265;51.664;7.626;2023-07-31T04:35:03;1.40;;;1.30;;
2362;SDS011;64265;51.664;7.626;2023-07-31T04:37:30;2.10;;;1.27;;
2362;SDS011;64265;51.664;7.626;2023-07-31T04:39:57;1.40;;;1.30;;
2362;SDS011;64265;51.664;7.626;2023-07-31T04:42:24;1.63;;;1.33;;
2362;SDS011;64265;51.664;7.626;2023-07-31T04:44:51;1.33;;;1.17;;
2362;SDS011;64265;51.664;7.626;2023-07-31T04:47:18;1.40;;;1.30;;
2362;SDS011;64265;51.664;7.626;2023-07-31T04:49:46;1.73;;;1.63;;
2362;SDS011;64265;51.664;7.626;2023-07-31T04:52:13;1.70;;;1.53;;
2362;SDS011;64265;51.664;7.626;2023-07-31T04:54:40;2.00;;;1.73;;
2362;SDS011;64265;51.664;7.626;2023-07-31T04:57:06;1.40;;;1.30;;
2362;SDS011;64265;51.664;7.626;2023-07-31T04:59:33;2.13;;;1.67;;
2362;SDS011;64265;51.664;7.626;2023-07-31T05:02:00;1.90;;;1.10;;
2362;SDS011;64265;51.664;7.626;2023-07-31T05:04:26;1.53;;;1.13;;
2362;SDS011;64265;51.664;7.626;2023-07-31T05:06:55;3.73;;;2.03;;
2362;SDS011;64265;51.664;7.626;2023-07-31T05:09:21;1.63;;;1.20;;
2362;SDS011;64265;51.664;7.626;2023-07-31T05:11:48;1.33;;;1.17;;
2362;SDS011;64265;51.664;7.626;2023-07-31T05:14:15;1.67;;;1.33;;
2362;SDS011;64265;51.664;7.626;2023-07-31T05:16:41;2.27;;;1.60;;
2362;SDS011;64265;51.664;7.626;2023-07-31T05:19:08;1.73;;;1.63;;
2362;SDS011;64265;51.664;7.626;2023-07-31T05:21:35;1.77;;;1.50;;
2362;SDS011;64265;51.664;7.626;2023-07-31T05:24:03;2.03;;;1.13;;
2362;SDS011;64265;51.664;7.626;2023-07-31T05:26:30;1.60;;;1.30;;
2362;SDS011;64265;51.664;7.626;2023-07-31T05:28:57;2.13;;;1.60;;
2362;SDS011;64265;51.664;7.626;2023-07-31T05:31:23;1.77;;;1.40;;
2362;SDS011;64265;51.664;7.626;2023-07-31T05:33:50;1.83;;;1.63;;
2362;SDS011;64265;51.664;7.626;2023-07-31T05:36:17;1.53;;;1.40;;
2362;SDS011;64265;51.664;7.626;2023-07-31T05:38:44;1.80;;;1.70;;
2362;SDS011;64265;51.664;7.626;2023-07-31T05:41:12;1.70;;;1.30;;
2362;SDS011;64265;51.664;7.626;2023-07-31T05:43:39;1.57;;;1.40;;
2362;SDS011;64265;51.664;7.626;2023-07-31T05:46:06;1.80;;;1.60;;
2362;SDS011;64265;51.664;7.626;2023-07-31T05:48:34;1.97;;;1.50;;
2362;SDS011;64265;51.664;7.626;2023-07-31T05:51:00;1.50;;;1.40;;
2362;SDS011;64265;51.664;7.626;2023-07-31T05:53:27;1.80;;;1.33;;
2362;SDS011;64265;51.664;7.626;2023-07-31T05:55:54;1.30;;;1.10;;
2362;SDS011;64265;51.664;7.626;2023-07-31T05:58:22;1.40;;;1.10;;
2362;SDS011;64265;51.664;7.626;2023-07-31T06:00:49;1.80;;;1.30;;
2362;SDS011;64265;51.664;7.626;2023-07-31T06:03:17;1.60;;;1.40;;
2362;SDS011;64265;51.664;7.626;2023-07-31T06:05:43;2.23;;;1.20;;
2362;SDS011;64265;51.664;7.626;2023-07-31T06:08:10;2.17;;;1.30;;
2362;SDS011;64265;51.664;7.626;2023-07-31T06:10:37;1.23;;;1.13;;
2362;SDS011;64265;51.664;7.626;2023-07-31T06:13:04;1.10;;;0.90;;
2362;SDS011;64265;51.664;7.626;2023-07-31T06:15:32;2.33;;;1.27;;
2362;SDS011;64265;51.664;7.626;2023-07-31T06:17:58;1.30;;;1.20;;
2362;SDS011;64265;51.664;7.626;2023-07-31T06:20:27;1.90;;;1.20;;
2362;SDS011;64265;51.664;7.626;2023-07-31T06:22:53;1.30;;;1.10;;
2362;SDS011;64265;51.664;7.626;2023-07-31T06:25:20;1.77;;;1.40;;
2362;SDS011;64265;51.664;7.626;2023-07-31T06:27:47;1.70;;;1.30;;
2362;SDS011;64265;51.664;7.626;2023-07-31T06:30:14;1.33;;;1.20;;
2362;SDS011;64265;51.664;7.626;2023-07-31T06:32:42;1.33;;;1.23;;
2362;SDS011;64265;51.664;7.626;2023-07-31T06:35:08;1.60;;;1.43;;
2362;SDS011;64265;51.664;7.626;2023-07-31T06:37:35;1.90;;;1.20;;
2362;SDS011;64265;51.664;7.626;2023-07-31T06:40:02;1.60;;;1.40;;
2362;SDS011;64265;51.664;7.626;2023-07-31T06:42:32;1.60;;;1.17;;
2362;SDS011;64265;51.664;7.626;2023-07-31T06:45:00;1.50;;;1.30;;
2362;SDS011;64265;51.664;7.626;2023-07-31T06:47:26;2.13;;;1.37;;
2362;SDS011;64265;51.664;7.626;2023-07-31T06:49:55;1.53;;;0.87;;
2362;SDS011;64265;51.664;7.626;2023-07-31T06:52:22;1.50;;;1.30;;
2362;SDS011;64265;51.664;7.626;2023-07-31T06:55:00;1.50;;;1.23;;
2362;SDS011;64265;51.664;7.626;2023-07-31T06:57:28;1.37;;;1.27;;
2362;SDS011;64265;51.664;7.626;2023-07-31T06:59:55;1.87;;;1.30;;
2362;SDS011;64265;51.664;7.626;2023-07-31T07:02:21;1.73;;;1.30;;
2362;SDS011;64265;51.664;7.626;2023-07-31T07:04:48;1.50;;;1.30;;
2362;SDS011;64265;51.664;7.626;2023-07-31T07:07:18;1.63;;;1.40;;
2362;SDS011;64265;51.664;7.626;2023-07-31T07:09:45;2.00;;;1.27;;
2362;SDS011;64265;51.664;7.626;2023-07-31T07:12:12;1.23;;;1.13;;
2362;SDS011;64265;51.664;7.626;2023-07-31T07:14:38;2.17;;;1.20;;
2362;SDS011;64265;51.664;7.626;2023-07-31T07:17:05;1.83;;;1.50;;
2362;SDS011;64265;51.664;7.626;2023-07-31T07:19:32;1.70;;;1.57;;
2362;SDS011;64265;51.664;7.626;2023-07-31T07:21:59;3.60;;;2.10;;
2362;SDS011;64265;51.664;7.626;2023-07-31T07:24:28;2.50;;;2.30;;
2362;SDS011;64265;51.664;7.626;2023-07-31T07:26:55;5.73;;;3.80;;
2362;SDS011;64265;51.664;7.626;2023-07-31T07:29:21;4.60;;;3.20;;
2362;SDS011;64265;51.664;7.626;2023-07-31T07:31:48;7.20;;;3.80;;
2362;SDS011;64265;51.664;7.626;2023-07-31T07:34:15;6.20;;;4.10;;
2362;SDS011;64265;51.664;7.626;2023-07-31T07:36:42;9.40;;;4.70;;
2362;SDS011;64265;51.664;7.626;2023-07-31T07:39:09;5.50;;;3.10;;
2362;SDS011;64265;51.664;7.626;2023-07-31T07:41:38;7.93;;;4.07;;
2362;SDS011;64265;51.664;7.626;2023-07-31T07:44:04;4.80;;;3.60;;
2362;SDS011;64265;51.664;7.626;2023-07-31T07:46:31;6.90;;;3.70;;
2362;SDS011;64265;51.664;7.626;2023-07-31T07:48:58;5.30;;;3.93;;
2362;SDS011;64265;51.664;7.626;2023-07-31T07:51:25;8.23;;;2.90;;
2362;SDS011;64265;51.664;7.626;2023-07-31T07:53:52;4.73;;;3.73;;
2362;SDS011;64265;51.664;7.626;2023-07-31T07:56:18;5.97;;;3.73;;
2362;SDS011;64265;51.664;7.626;2023-07-31T07:58:49;4.33;;;3.50;;
2362;SDS011;64265;51.664;7.626;2023-07-31T08:01:16;5.10;;;3.37;;
2362;SDS011;64265;51.664;7.626;2023-07-31T08:03:43;4.80;;;3.70;;
2362;SDS011;64265;51.664;7.626;2023-07-31T08:06:09;9.53;;;3.50;;
2362;SDS011;64265;51.664;7.626;2023-07-31T08:08:37;4.50;;;3.20;;
2362;SDS011;64265;51.664;7.626;2023-07-31T08:11:04;8.10;;;3.33;;
2362;SDS011;64265;51.664;7.626;2023-07-31T08:13:31;4.43;;;3.40;;
2362;SDS011;64265;51.664;7.626;2023-07-31T08:15:59;4.23;;;2.10;;
2362;SDS011;64265;51.664;7.626;2023-07-31T08:18:26;4.03;;;3.20;;
2362;SDS011;64265;51.664;7.626;2023-07-31T08:20:52;4.70;;;3.47;;
2362;SDS011;64265;51.664;7.626;2023-07-31T08:23:19;6.03;;;2.83;;
2362;SDS011;64265;51.664;7.626;2023-07-31T08:25:46;3.77;;;3.27;;
2362;SDS011;64265;51.664;7.626;2023-07-31T08:28:14;5.10;;;2.87;;
2362;SDS011;64265;51.664;7.626;2023-07-31T08:30:41;4.70;;;3.43;;
2362;SDS011;64265;51.664;7.626;2023-07-31T08:33:09;7.73;;;3.90;;
2362;SDS011;64265;51.664;7.626;2023-07-31T08:35:36;4.87;;;3.20;;
2362;SDS011;64265;51.664;7.626;2023-07-31T08:38:03;4.53;;;3.40;;
2362;SDS011;64265;51.664;7.626;2023-07-31T08:40:30;5.70;;;2.90;;
2362;SDS011;64265;51.664;7.626;2023-07-31T08:42:56;5.83;;;2.60;;
2362;SDS011;64265;51.664;7.626;2023-07-31T08:45:27;4.97;;;3.53;;
2362;SDS011;64265;51.664;7.626;2023-07-31T08:47:54;5.80;;;3.67;;
2362;SDS011;64265;51.664;7.626;2023-07-31T08:50:23;5.30;;;3.93;;
2362;SDS011;64265;51.664;7.626;2023-07-31T08:52:51;5.90;;;3.17;;
2362;SDS011;64265;51.664;7.626;2023-07-31T08:55:18;4.23;;;3.13;;
2362;SDS011;64265;51.664;7.626;2023-07-31T08:57:48;3.43;;;2.87;;
2362;SDS011;64265;51.664;7.626;2023-07-31T09:00:17;3.90;;;3.20;;
2362;SDS011;64265;51.664;7.626;2023-07-31T09:02:49;4.10;;;2.97;;
2362;SDS011;64265;51.664;7.626;2023-07-31T09:05:22;4.37;;;3.07;;
2362;SDS011;64265;51.664;7.626;2023-07-31T09:07:52;4.87;;;2.73;;
2362;SDS011;64265;51.664;7.626;2023-07-31T09:10:21;4.77;;;2.90;;
2362;SDS011;64265;51.664;7.626;2023-07-31T09:12:48;5.37;;;3.13;;
2362;SDS011;64265;51.664;7.626;2023-07-31T09:15:15;5.47;;;3.53;;
2362;SDS011;64265;51.664;7.626;2023-07-31T09:17:42;3.73;;;3.37;;
2362;SDS011;64265;51.664;7.626;2023-07-31T09:20:15;7.33;;;2.70;;
2362;SDS011;64265;51.664;7.626;2023-07-31T09:22:44;4.20;;;3.67;;
2362;SDS011;64265;51.664;7.626;2023-07-31T09:25:15;3.30;;;2.50;;
2362;SDS011;64265;51.664;7.626;2023-07-31T09:27:45;3.50;;;2.87;;
2362;SDS011;64265;51.664;7.626;2023-07-31T09:30:13;4.87;;;3.00;;
2362;SDS011;64265;51.664;7.626;2023-07-31T09:32:40;3.63;;;3.30;;
2362;SDS011;64265;51.664;7.626;2023-07-31T09:35:18;2.60;;;2.40;;
2362;SDS011;64265;51.664;7.626;2023-07-31T09:37:51;3.60;;;2.83;;
2362;SDS011;64265;51.664;7.626;2023-07-31T09:40:25;4.53;;;2.83;;
2362;SDS011;64265;51.664;7.626;2023-07-31T09:42:53;3.20;;;2.90;;
2362;SDS011;64265;51.664;7.626;2023-07-31T09:45:21;3.93;;;2.57;;
2362;SDS011;64265;51.664;7.626;2023-07-31T09:47:49;3.67;;;2.50;;
2362;SDS011;64265;51.664;7.626;2023-07-31T09:50:16;3.77;;;2.90;;
2362;SDS011;64265;51.664;7.626;2023-07-31T09:52:42;3.10;;;2.80;;
2362;SDS011;64265;51.664;7.626;2023-07-31T09:55:11;3.93;;;2.90;;
2362;SDS011;64265;51.664;7.626;2023-07-31T09:57:38;2.80;;;2.43;;
2362;SDS011;64265;51.664;7.626;2023-07-31T10:00:07;3.20;;;2.90;;
2362;SDS011;64265;51.664;7.626;2023-07-31T10:02:35;2.60;;;2.40;;
2362;SDS011;64265;51.664;7.626;2023-07-31T10:05:03;3.50;;;3.10;;
2362;SDS011;64265;51.664;7.626;2023-07-31T10:07:31;3.53;;;2.70;;
2362;SDS011;64265;51.664;7.626;2023-07-31T10:10:02;4.57;;;3.13;;
2362;SDS011;64265;51.664;7.626;2023-07-31T10:12:32;3.40;;;3.10;;
2362;SDS011;64265;51.664;7.626;2023-07-31T10:15:00;3.70;;;2.23;;
2362;SDS011;64265;51.664;7.626;2023-07-31T10:17:27;4.33;;;3.10;;
2362;SDS011;64265;51.664;7.626;2023-07-31T10:19:56;2.77;;;2.37;;
2362;SDS011;64265;51.664;7.626;2023-07-31T10:22:24;3.53;;;3.20;;
2362;SDS011;64265;51.664;7.626;2023-07-31T10:24:51;2.43;;;2.23;;
2362;SDS011;64265;51.664;7.626;2023-07-31T10:27:20;3.30;;;2.47;;
2362;SDS011;64265;51.664;7.626;2023-07-31T10:29:48;4.97;;;3.10;;
2362;SDS011;64265;51.664;7.626;2023-07-31T10:32:18;5.13;;;2.97;;
2362;SDS011;64265;51.664;7.626;2023-07-31T10:34:48;3.00;;;2.77;;
2362;SDS011;64265;51.664;7.626;2023-07-31T10:37:19;2.87;;;2.57;;
2362;SDS011;64265;51.664;7.626;2023-07-31T10:39:57;2.83;;;2.53;;
2362;SDS011;64265;51.664;7.626;2023-07-31T10:42:28;6.40;;;2.30;;
2362;SDS011;64265;51.664;7.626;2023-07-31T10:44:59;6.83;;;2.83;;
2362;SDS011;64265;51.664;7.626;2023-07-31T10:47:33;2.50;;;2.30;;
2362;SDS011;64265;51.664;7.626;2023-07-31T10:50:12;3.00;;;1.87;;
2362;SDS011;64265;51.664;7.626;2023-07-31T10:52:44;3.00;;;1.93;;
2362;SDS011;64265;51.664;7.626;2023-07-31T10:55:24;6.80;;;2.20;;
2362;SDS011;64265;51.664;7.626;2023-07-31T10:57:53;4.40;;;2.57;;
2362;SDS011;64265;51.664;7.626;2023-07-31T11:00:24;1.90;;;1.63;;
2362;SDS011;64265;51.664;7.626;2023-07-31T11:02:56;6.93;;;2.53;;
2362;SDS011;64265;51.664;7.626;2023-07-31T11:08:13;3.23;;;1.93;;
2362;SDS011;64265;51.664;7.626;2023-07-31T11:10:41;3.40;;;1.90;;
2362;SDS011;64265;51.664;7.626;2023-07-31T11:13:09;5.40;;;2.20;;
2362;SDS011;64265;51.664;7.626;2023-07-31T11:15:37;8.40;;;2.20;;
2362;SDS011;64265;51.664;7.626;2023-07-31T11:18:04;3.83;;;2.60;;
2362;SDS011;64265;51.664;7.626;2023-07-31T11:20:33;3.33;;;2.30;;
2362;SDS011;64265;51.664;7.626;2023-07-31T11:23:01;4.97;;;2.70;;
2362;SDS011;64265;51.664;7.626;2023-07-31T11:25:28;2.53;;;2.33;;
2362;SDS011;64265;51.664;7.626;2023-07-31T11:27:56;3.83;;;2.50;;
2362;SDS011;64265;51.664;7.626;2023-07-31T11:30:23;1.80;;;1.60;;
2362;SDS011;64265;51.664;7.626;2023-07-31T11:32:51;3.33;;;2.50;;
2362;SDS011;64265;51.664;7.626;2023-07-31T11:35:18;1.83;;;1.63;;
2362;SDS011;64265;51.664;7.626;2023-07-31T11:37:45;3.00;;;2.03;;
2362;SDS011;64265;51.664;7.626;2023-07-31T11:40:11;2.23;;;2.03;;
2362;SDS011;64265;51.664;7.626;2023-07-31T11:42:38;7.73;;;1.70;;
2362;SDS011;64265;51.664;7.626;2023-07-31T11:45:05;3.10;;;1.90;;
2362;SDS011;64265;51.664;7.626;2023-07-31T11:47:33;2.23;;;1.50;;
2362;SDS011;64265;51.664;7.626;2023-07-31T11:50:03;2.27;;;2.07;;
2362;SDS011;64265;51.664;7.626;2023-07-31T11:52:32;3.60;;;2.10;;
2362;SDS011;64265;51.664;7.626;2023-07-31T11:55:03;3.80;;;1.77;;
2362;SDS011;64265;51.664;7.626;2023-07-31T11:57:31;2.13;;;1.90;;
2362;SDS011;64265;51.664;7.626;2023-07-31T11:59:58;4.60;;;1.87;;
2362;SDS011;64265;51.664;7.626;2023-07-31T12:02:25;3.57;;;2.23;;
2362;SDS011;64265;51.664;7.626;2023-07-31T12:04:52;4.90;;;2.33;;
2362;SDS011;64265;51.664;7.626;2023-07-31T12:07:20;3.87;;;1.83;;
2362;SDS011;64265;51.664;7.626;2023-07-31T12:09:50;3.63;;;1.97;;
2362;SDS011;64265;51.664;7.626;2023-07-31T12:12:19;2.33;;;1.83;;
2362;SDS011;64265;51.664;7.626;2023-07-31T12:14:47;5.73;;;2.07;;
2362;SDS011;64265;51.664;7.626;2023-07-31T12:17:15;2.20;;;2.00;;
2362;SDS011;64265;51.664;7.626;2023-07-31T12:19:42;2.60;;;1.73;;
2362;SDS011;64265;51.664;7.626;2023-07-31T12:22:12;5.73;;;1.60;;
2362;SDS011;64265;51.664;7.626;2023-07-31T12:24:41;5.03;;;2.33;;
2362;SDS011;64265;51.664;7.626;2023-07-31T12:27:10;2.57;;;2.20;;
2362;SDS011;64265;51.664;7.626;2023-07-31T12:29:37;3.73;;;2.00;;
2362;SDS011;64265;51.664;7.626;2023-07-31T12:32:07;2.57;;;2.37;;
2362;SDS011;64265;51.664;7.626;2023-07-31T12:34:45;2.30;;;1.77;;
2362;SDS011;64265;51.664;7.626;2023-07-31T12:37:12;4.13;;;1.60;;
2362;SDS011;64265;51.664;7.626;2023-07-31T12:39:38;4.07;;;2.57;;
2362;SDS011;64265;51.664;7.626;2023-07-31T12:42:06;9.00;;;1.80;;
2362;SDS011;64265;51.664;7.626;2023-07-31T12:44:33;2.80;;;2.03;;
2362;SDS011;64265;51.664;7.626;2023-07-31T12:47:00;3.43;;;1.97;;
2362;SDS011;64265;51.664;7.626;2023-07-31T12:49:26;3.40;;;1.80;;
2362;SDS011;64265;51.664;7.626;2023-07-31T12:51:53;3.20;;;1.93;;
2362;SDS011;64265;51.664;7.626;2023-07-31T12:54:20;3.60;;;1.97;;
2362;SDS011;64265;51.664;7.626;2023-07-31T12:56:48;4.20;;;1.77;;
2362;SDS011;64265;51.664;7.626;2023-07-31T12:59:15;2.00;;;1.80;;
2362;SDS011;64265;51.664;7.626;2023-07-31T13:01:41;2.60;;;2.20;;
2362;SDS011;64265;51.664;7.626;2023-07-31T13:04:08;2.37;;;2.17;;
2362;SDS011;64265;51.664;7.626;2023-07-31T13:06:35;2.23;;;1.93;;
2362;SDS011;64265;51.664;7.626;2023-07-31T13:09:02;2.10;;;1.57;;
2362;SDS011;64265;51.664;7.626;2023-07-31T13:11:29;2.20;;;1.80;;
2362;SDS011;64265;51.664;7.626;2023-07-31T13:13:57;4.40;;;2.23;;
2362;SDS011;64265;51.664;7.626;2023-07-31T13:16:24;4.60;;;2.33;;
2362;SDS011;64265;51.664;7.626;2023-07-31T13:18:50;2.33;;;1.70;;
2362;SDS011;64265;51.664;7.626;2023-07-31T13:21:18;2.47;;;2.20;;
2362;SDS011;64265;51.664;7.626;2023-07-31T13:23:46;2.97;;;2.03;;
2362;SDS011;64265;51.664;7.626;2023-07-31T13:26:13;2.57;;;2.03;;
2362;SDS011;64265;51.664;7.626;2023-07-31T13:28:40;2.27;;;2.00;;
2362;SDS011;64265;51.664;7.626;2023-07-31T13:31:08;2.97;;;1.90;;
2362;SDS011;64265;51.664;7.626;2023-07-31T13:33:36;2.60;;;1.90;;
2362;SDS011;64265;51.664;7.626;2023-07-31T13:36:02;1.80;;;1.50;;
2362;SDS011;64265;51.664;7.626;2023-07-31T13:38:30;2.27;;;1.50;;
2362;SDS011;64265;51.664;7.626;2023-07-31T13:40:56;2.03;;;1.83;;
2362;SDS011;64265;51.664;7.626;2023-07-31T13:43:23;2.93;;;2.17;;
2362;SDS011;64265;51.664;7.626;2023-07-31T13:45:50;3.70;;;2.07;;
2362;SDS011;64265;51.664;7.626;2023-07-31T13:48:18;2.90;;;1.93;;
2362;SDS011;64265;51.664;7.626;2023-07-31T13:50:45;1.50;;;1.40;;
2362;SDS011;64265;51.664;7.626;2023-07-31T13:53:11;2.90;;;1.67;;
2362;SDS011;64265;51.664;7.626;2023-07-31T13:55:38;2.00;;;1.80;;
2362;SDS011;64265;51.664;7.626;2023-07-31T13:58:05;4.30;;;1.70;;
2362;SDS011;64265;51.664;7.626;2023-07-31T14:00:31;2.20;;;1.70;;
2362;SDS011;64265;51.664;7.626;2023-07-31T14:03:00;2.60;;;1.90;;
2362;SDS011;64265;51.664;7.626;2023-07-31T14:05:28;6.20;;;1.90;;
2362;SDS011;64265;51.664;7.626;2023-07-31T14:07:54;3.67;;;1.80;;
2362;SDS011;64265;51.664;7.626;2023-07-31T14:10:21;2.77;;;1.70;;
2362;SDS011;64265;51.664;7.626;2023-07-31T14:12:48;2.60;;;1.80;;
2362;SDS011;64265;51.664;7.626;2023-07-31T14:15:15;1.60;;;1.43;;
2362;SDS011;64265;51.664;7.626;2023-07-31T14:17:41;3.00;;;1.90;;
2362;SDS011;64265;51.664;7.626;2023-07-31T14:20:09;7.57;;;2.07;;
2362;SDS011;64265;51.664;7.626;2023-07-31T14:22:38;3.57;;;1.73;;
2362;SDS011;64265;51.664;7.626;2023-07-31T14:25:05;2.40;;;1.60;;
2362;SDS011;64265;51.664;7.626;2023-07-31T14:27:32;2.17;;;1.97;;
2362;SDS011;64265;51.664;7.626;2023-07-31T14:29:59;2.33;;;1.93;;
2362;SDS011;64265;51.664;7.626;2023-07-31T14:32:26;1.80;;;1.57;;
2362;SDS011;64265;51.664;7.626;2023-07-31T14:34:53;1.67;;;1.50;;
2362;SDS011;64265;51.664;7.626;2023-07-31T14:37:20;3.10;;;1.93;;
2362;SDS011;64265;51.664;7.626;2023-07-31T14:39:48;1.90;;;1.33;;
2362;SDS011;64265;51.664;7.626;2023-07-31T14:42:15;1.50;;;1.40;;
2362;SDS011;64265;51.664;7.626;2023-07-31T14:44:43;2.77;;;1.80;;
2362;SDS011;64265;51.664;7.626;2023-07-31T14:47:12;2.70;;;1.60;;
2362;SDS011;64265;51.664;7.626;2023-07-31T14:49:38;1.80;;;1.37;;
2362;SDS011;64265;51.664;7.626;2023-07-31T14:52:05;3.23;;;1.80;;
2362;SDS011;64265;51.664;7.626;2023-07-31T14:54:32;1.90;;;1.63;;
2362;SDS011;64265;51.664;7.626;2023-07-31T14:57:00;1.80;;;1.70;;
2362;SDS011;64265;51.664;7.626;2023-07-31T14:59:27;4.73;;;1.83;;
2362;SDS011;64265;51.664;7.626;2023-07-31T15:01:54;2.10;;;1.90;;
2362;SDS011;64265;51.664;7.626;2023-07-31T15:04:21;2.10;;;1.90;;
2362;SDS011;64265;51.664;7.626;2023-07-31T15:06:48;3.30;;;2.20;;
2362;SDS011;64265;51.664;7.626;2023-07-31T15:09:15;2.00;;;1.90;;